Fresh Meadows, New York
Current Conditions -  °F | °C
As of 6:51 PM on Saturday 22 Nov 2014 (Local Time) from KLGA Reporting Station
Overcast Overcast  
Wind Chill: 37°   Ceiling: 4500
Heat Index: 43°   Visibility: 10mi
Dew Point: 18°   Wind: 12mph
Humidity: 37%   Direction: 210°SSW
Pressure: 30.23"   Gusts: 21mph
Location:  40.73°N, 73.79°W
Report Text: KLGA 222351Z 21010G18KT 10SM BKN045 BKN080 OVC100 06/M08 A3023 RMK AO2 SLP236 T00611078 10061 20044 58014
Loading
Personal Weather Stations






























Interactive Weather Map New forecast layout! Learn more

10-Day Weather Forecast

Advertisements
Track Severe Weather on mobile